sensor_id;sensor_type;location;lat;lon;timestamp;P1;durP1;ratioP1;P2;durP2;ratioP2
8219;SDS011;4151;51.110;7.020;2022-12-18T00:00:59;7.87;;;4.10;;
8219;SDS011;4151;51.110;7.020;2022-12-18T00:03:25;9.23;;;4.90;;
8219;SDS011;4151;51.110;7.020;2022-12-18T00:05:51;7.53;;;4.60;;
8219;SDS011;4151;51.110;7.020;2022-12-18T00:08:17;9.77;;;4.67;;
8219;SDS011;4151;51.110;7.020;2022-12-18T00:10:45;9.90;;;5.30;;
8219;SDS011;4151;51.110;7.020;2022-12-18T00:13:12;13.97;;;5.00;;
8219;SDS011;4151;51.110;7.020;2022-12-18T00:15:38;9.20;;;5.20;;
8219;SDS011;4151;51.110;7.020;2022-12-18T00:18:04;9.03;;;5.27;;
8219;SDS011;4151;51.110;7.020;2022-12-18T00:20:30;9.87;;;5.13;;
8219;SDS011;4151;51.110;7.020;2022-12-18T00:22:55;7.40;;;4.03;;
8219;SDS011;4151;51.110;7.020;2022-12-18T00:25:21;9.23;;;4.37;;
8219;SDS011;4151;51.110;7.020;2022-12-18T00:27:47;7.40;;;4.13;;
8219;SDS011;4151;51.110;7.020;2022-12-18T00:30:13;9.37;;;4.53;;
8219;SDS011;4151;51.110;7.020;2022-12-18T00:32:38;10.67;;;4.97;;
8219;SDS011;4151;51.110;7.020;2022-12-18T00:35:05;11.83;;;4.43;;
8219;SDS011;4151;51.110;7.020;2022-12-18T00:37:33;10.50;;;4.63;;
8219;SDS011;4151;51.110;7.020;2022-12-18T00:39:58;12.90;;;5.97;;
8219;SDS011;4151;51.110;7.020;2022-12-18T00:42:24;13.63;;;5.23;;
8219;SDS011;4151;51.110;7.020;2022-12-18T00:45:08;8.73;;;4.80;;
8219;SDS011;4151;51.110;7.020;2022-12-18T00:47:34;9.53;;;4.47;;
8219;SDS011;4151;51.110;7.020;2022-12-18T00:50:00;9.10;;;4.60;;
8219;SDS011;4151;51.110;7.020;2022-12-18T00:52:25;6.20;;;4.23;;
8219;SDS011;4151;51.110;7.020;2022-12-18T00:54:51;8.73;;;4.77;;
8219;SDS011;4151;51.110;7.020;2022-12-18T00:57:16;9.20;;;5.13;;
8219;SDS011;4151;51.110;7.020;2022-12-18T00:59:42;13.03;;;4.53;;
8219;SDS011;4151;51.110;7.020;2022-12-18T01:02:07;14.20;;;5.20;;
8219;SDS011;4151;51.110;7.020;2022-12-18T01:04:33;10.80;;;5.33;;
8219;SDS011;4151;51.110;7.020;2022-12-18T01:06:59;9.03;;;5.00;;
8219;SDS011;4151;51.110;7.020;2022-12-18T01:09:25;9.10;;;4.77;;
8219;SDS011;4151;51.110;7.020;2022-12-18T01:11:51;7.40;;;4.33;;
8219;SDS011;4151;51.110;7.020;2022-12-18T01:14:17;13.13;;;4.67;;
8219;SDS011;4151;51.110;7.020;2022-12-18T01:16:42;11.90;;;4.70;;
8219;SDS011;4151;51.110;7.020;2022-12-18T01:19:08;8.73;;;4.50;;
8219;SDS011;4151;51.110;7.020;2022-12-18T01:21:33;11.10;;;4.80;;
8219;SDS011;4151;51.110;7.020;2022-12-18T01:23:59;14.07;;;4.30;;
8219;SDS011;4151;51.110;7.020;2022-12-18T01:26:25;10.30;;;4.90;;
8219;SDS011;4151;51.110;7.020;2022-12-18T01:28:54;8.20;;;4.20;;
8219;SDS011;4151;51.110;7.020;2022-12-18T01:31:25;10.23;;;4.63;;
8219;SDS011;4151;51.110;7.020;2022-12-18T01:33:53;9.77;;;5.70;;
8219;SDS011;4151;51.110;7.020;2022-12-18T01:38:47;16.00;;;4.70;;
8219;SDS011;4151;51.110;7.020;2022-12-18T01:41:13;10.30;;;4.67;;
8219;SDS011;4151;51.110;7.020;2022-12-18T01:43:40;7.47;;;4.47;;
8219;SDS011;4151;51.110;7.020;2022-12-18T01:46:07;9.27;;;4.87;;
8219;SDS011;4151;51.110;7.020;2022-12-18T01:48:32;9.67;;;5.03;;
8219;SDS011;4151;51.110;7.020;2022-12-18T01:51:01;7.50;;;4.53;;
8219;SDS011;4151;51.110;7.020;2022-12-18T01:53:26;8.17;;;4.13;;
8219;SDS011;4151;51.110;7.020;2022-12-18T01:55:54;7.57;;;4.70;;
8219;SDS011;4151;51.110;7.020;2022-12-18T01:58:30;10.17;;;4.40;;
8219;SDS011;4151;51.110;7.020;2022-12-18T02:01:18;13.70;;;4.30;;
8219;SDS011;4151;51.110;7.020;2022-12-18T02:03:46;7.80;;;4.27;;
8219;SDS011;4151;51.110;7.020;2022-12-18T02:06:13;7.03;;;4.10;;
8219;SDS011;4151;51.110;7.020;2022-12-18T02:16:49;9.53;;;4.70;;
8219;SDS011;4151;51.110;7.020;2022-12-18T02:27:20;8.17;;;4.00;;
8219;SDS011;4151;51.110;7.020;2022-12-18T02:32:16;11.13;;;5.37;;
8219;SDS011;4151;51.110;7.020;2022-12-18T02:34:47;12.00;;;5.00;;
8219;SDS011;4151;51.110;7.020;2022-12-18T02:37:15;5.83;;;4.00;;
8219;SDS011;4151;51.110;7.020;2022-12-18T02:39:43;8.83;;;4.43;;
8219;SDS011;4151;51.110;7.020;2022-12-18T02:42:11;8.37;;;3.87;;
8219;SDS011;4151;51.110;7.020;2022-12-18T02:44:41;8.63;;;4.80;;
8219;SDS011;4151;51.110;7.020;2022-12-18T02:47:12;5.50;;;3.80;;
8219;SDS011;4151;51.110;7.020;2022-12-18T02:52:25;7.57;;;3.97;;
8219;SDS011;4151;51.110;7.020;2022-12-18T03:00:14;19.93;;;3.60;;
8219;SDS011;4151;51.110;7.020;2022-12-18T03:03:05;4.43;;;4.00;;
8219;SDS011;4151;51.110;7.020;2022-12-18T03:05:38;6.57;;;3.73;;
8219;SDS011;4151;51.110;7.020;2022-12-18T03:08:14;5.67;;;3.23;;
8219;SDS011;4151;51.110;7.020;2022-12-18T03:10:54;7.50;;;3.67;;
8219;SDS011;4151;51.110;7.020;2022-12-18T03:13:27;6.73;;;3.93;;
8219;SDS011;4151;51.110;7.020;2022-12-18T03:16:00;4.87;;;3.67;;
8219;SDS011;4151;51.110;7.020;2022-12-18T03:18:32;8.47;;;4.23;;
8219;SDS011;4151;51.110;7.020;2022-12-18T03:21:11;9.63;;;3.40;;
8219;SDS011;4151;51.110;7.020;2022-12-18T03:23:40;7.90;;;3.70;;
8219;SDS011;4151;51.110;7.020;2022-12-18T03:26:10;8.43;;;4.50;;
8219;SDS011;4151;51.110;7.020;2022-12-18T03:28:39;6.50;;;3.50;;
8219;SDS011;4151;51.110;7.020;2022-12-18T03:31:11;6.00;;;3.27;;
8219;SDS011;4151;51.110;7.020;2022-12-18T03:33:55;7.53;;;4.47;;
8219;SDS011;4151;51.110;7.020;2022-12-18T03:36:23;9.83;;;4.07;;
8219;SDS011;4151;51.110;7.020;2022-12-18T03:38:49;7.03;;;3.70;;
8219;SDS011;4151;51.110;7.020;2022-12-18T03:41:19;6.80;;;3.90;;
8219;SDS011;4151;51.110;7.020;2022-12-18T03:44:00;8.90;;;3.77;;
8219;SDS011;4151;51.110;7.020;2022-12-18T03:52:01;10.90;;;4.93;;
8219;SDS011;4151;51.110;7.020;2022-12-18T03:54:31;12.13;;;4.57;;
8219;SDS011;4151;51.110;7.020;2022-12-18T03:57:04;7.43;;;3.90;;
8219;SDS011;4151;51.110;7.020;2022-12-18T03:59:36;6.00;;;3.90;;
8219;SDS011;4151;51.110;7.020;2022-12-18T04:02:04;5.30;;;3.50;;
8219;SDS011;4151;51.110;7.020;2022-12-18T04:04:32;7.20;;;3.97;;
8219;SDS011;4151;51.110;7.020;2022-12-18T04:07:00;6.00;;;4.00;;
8219;SDS011;4151;51.110;7.020;2022-12-18T04:09:26;4.87;;;3.30;;
8219;SDS011;4151;51.110;7.020;2022-12-18T04:11:53;8.60;;;4.27;;
8219;SDS011;4151;51.110;7.020;2022-12-18T04:14:18;7.60;;;4.20;;
8219;SDS011;4151;51.110;7.020;2022-12-18T04:16:44;4.93;;;3.63;;
8219;SDS011;4151;51.110;7.020;2022-12-18T04:19:09;7.57;;;3.70;;
8219;SDS011;4151;51.110;7.020;2022-12-18T04:21:35;4.97;;;3.67;;
8219;SDS011;4151;51.110;7.020;2022-12-18T04:24:01;5.50;;;3.33;;
8219;SDS011;4151;51.110;7.020;2022-12-18T04:26:26;5.47;;;3.40;;
8219;SDS011;4151;51.110;7.020;2022-12-18T04:28:52;7.03;;;3.23;;
8219;SDS011;4151;51.110;7.020;2022-12-18T04:31:17;6.17;;;3.70;;
8219;SDS011;4151;51.110;7.020;2022-12-18T04:33:43;6.63;;;3.60;;
8219;SDS011;4151;51.110;7.020;2022-12-18T04:36:08;5.00;;;3.20;;
8219;SDS011;4151;51.110;7.020;2022-12-18T04:38:34;7.23;;;3.57;;
8219;SDS011;4151;51.110;7.020;2022-12-18T04:40:59;7.23;;;3.80;;
8219;SDS011;4151;51.110;7.020;2022-12-18T04:43:25;6.57;;;3.60;;
8219;SDS011;4151;51.110;7.020;2022-12-18T04:45:51;6.07;;;3.53;;
8219;SDS011;4151;51.110;7.020;2022-12-18T04:48:16;5.60;;;2.87;;
8219;SDS011;4151;51.110;7.020;2022-12-18T04:50:42;6.27;;;3.30;;
8219;SDS011;4151;51.110;7.020;2022-12-18T04:53:07;6.60;;;3.50;;
8219;SDS011;4151;51.110;7.020;2022-12-18T04:55:33;6.37;;;3.80;;
8219;SDS011;4151;51.110;7.020;2022-12-18T04:57:58;8.37;;;3.50;;
8219;SDS011;4151;51.110;7.020;2022-12-18T05:00:24;4.30;;;3.27;;
8219;SDS011;4151;51.110;7.020;2022-12-18T05:02:49;13.07;;;6.20;;
8219;SDS011;4151;51.110;7.020;2022-12-18T05:05:15;4.50;;;3.33;;
8219;SDS011;4151;51.110;7.020;2022-12-18T05:07:41;6.60;;;3.30;;
8219;SDS011;4151;51.110;7.020;2022-12-18T05:10:06;6.73;;;3.70;;
8219;SDS011;4151;51.110;7.020;2022-12-18T05:12:33;9.80;;;3.40;;
8219;SDS011;4151;51.110;7.020;2022-12-18T05:14:58;6.40;;;3.80;;
8219;SDS011;4151;51.110;7.020;2022-12-18T05:17:24;7.00;;;3.57;;
8219;SDS011;4151;51.110;7.020;2022-12-18T05:19:50;7.87;;;4.03;;
8219;SDS011;4151;51.110;7.020;2022-12-18T05:22:15;7.50;;;4.10;;
8219;SDS011;4151;51.110;7.020;2022-12-18T05:24:41;6.77;;;3.63;;
8219;SDS011;4151;51.110;7.020;2022-12-18T05:27:06;7.50;;;3.73;;
8219;SDS011;4151;51.110;7.020;2022-12-18T05:29:32;6.97;;;4.33;;
8219;SDS011;4151;51.110;7.020;2022-12-18T05:31:57;6.70;;;3.93;;
8219;SDS011;4151;51.110;7.020;2022-12-18T05:34:23;10.73;;;4.33;;
8219;SDS011;4151;51.110;7.020;2022-12-18T05:36:48;9.30;;;3.40;;
8219;SDS011;4151;51.110;7.020;2022-12-18T05:39:14;5.37;;;3.67;;
8219;SDS011;4151;51.110;7.020;2022-12-18T05:41:40;5.90;;;3.20;;
8219;SDS011;4151;51.110;7.020;2022-12-18T05:44:05;4.23;;;3.10;;
8219;SDS011;4151;51.110;7.020;2022-12-18T05:46:31;5.87;;;3.40;;
8219;SDS011;4151;51.110;7.020;2022-12-18T05:48:59;6.60;;;4.23;;
8219;SDS011;4151;51.110;7.020;2022-12-18T05:51:26;10.83;;;4.57;;
8219;SDS011;4151;51.110;7.020;2022-12-18T05:53:51;6.40;;;3.77;;
8219;SDS011;4151;51.110;7.020;2022-12-18T05:56:18;9.23;;;4.47;;
8219;SDS011;4151;51.110;7.020;2022-12-18T05:58:45;9.40;;;4.80;;
8219;SDS011;4151;51.110;7.020;2022-12-18T06:01:13;8.97;;;5.17;;
8219;SDS011;4151;51.110;7.020;2022-12-18T06:03:41;7.80;;;4.30;;
8219;SDS011;4151;51.110;7.020;2022-12-18T06:06:14;6.37;;;4.27;;
8219;SDS011;4151;51.110;7.020;2022-12-18T06:08:41;10.43;;;4.20;;
8219;SDS011;4151;51.110;7.020;2022-12-18T06:11:06;9.90;;;4.47;;
8219;SDS011;4151;51.110;7.020;2022-12-18T06:13:32;9.43;;;4.53;;
8219;SDS011;4151;51.110;7.020;2022-12-18T06:15:58;7.70;;;4.13;;
8219;SDS011;4151;51.110;7.020;2022-12-18T06:18:26;6.60;;;4.03;;
8219;SDS011;4151;51.110;7.020;2022-12-18T06:20:55;6.97;;;3.90;;
8219;SDS011;4151;51.110;7.020;2022-12-18T06:23:21;8.40;;;4.80;;
8219;SDS011;4151;51.110;7.020;2022-12-18T06:25:47;5.10;;;3.83;;
8219;SDS011;4151;51.110;7.020;2022-12-18T06:28:13;10.90;;;4.13;;
8219;SDS011;4151;51.110;7.020;2022-12-18T06:30:39;8.17;;;4.67;;
8219;SDS011;4151;51.110;7.020;2022-12-18T06:33:04;7.80;;;4.47;;
8219;SDS011;4151;51.110;7.020;2022-12-18T06:35:31;8.80;;;4.50;;
8219;SDS011;4151;51.110;7.020;2022-12-18T06:37:57;11.47;;;5.50;;
8219;SDS011;4151;51.110;7.020;2022-12-18T06:40:22;8.50;;;4.87;;
8219;SDS011;4151;51.110;7.020;2022-12-18T06:42:48;8.03;;;4.77;;
8219;SDS011;4151;51.110;7.020;2022-12-18T06:45:13;11.07;;;4.87;;
8219;SDS011;4151;51.110;7.020;2022-12-18T06:47:39;9.10;;;4.83;;
8219;SDS011;4151;51.110;7.020;2022-12-18T06:50:05;10.63;;;4.90;;
8219;SDS011;4151;51.110;7.020;2022-12-18T06:52:31;10.30;;;5.43;;
8219;SDS011;4151;51.110;7.020;2022-12-18T06:54:57;7.23;;;4.40;;
8219;SDS011;4151;51.110;7.020;2022-12-18T06:57:23;9.33;;;4.63;;
8219;SDS011;4151;51.110;7.020;2022-12-18T06:59:48;12.80;;;6.90;;
8219;SDS011;4151;51.110;7.020;2022-12-18T07:02:14;14.83;;;5.13;;
8219;SDS011;4151;51.110;7.020;2022-12-18T07:04:39;9.83;;;5.00;;
8219;SDS011;4151;51.110;7.020;2022-12-18T07:07:05;11.20;;;5.70;;
8219;SDS011;4151;51.110;7.020;2022-12-18T07:09:31;10.33;;;5.40;;
8219;SDS011;4151;51.110;7.020;2022-12-18T07:11:56;12.17;;;5.87;;
8219;SDS011;4151;51.110;7.020;2022-12-18T07:14:22;11.50;;;5.33;;
8219;SDS011;4151;51.110;7.020;2022-12-18T07:16:47;9.40;;;5.00;;
8219;SDS011;4151;51.110;7.020;2022-12-18T07:19:13;15.10;;;5.00;;
8219;SDS011;4151;51.110;7.020;2022-12-18T07:21:38;10.13;;;5.20;;
8219;SDS011;4151;51.110;7.020;2022-12-18T07:24:04;12.73;;;5.60;;
8219;SDS011;4151;51.110;7.020;2022-12-18T07:26:30;8.00;;;5.17;;
8219;SDS011;4151;51.110;7.020;2022-12-18T07:28:56;12.37;;;5.67;;
8219;SDS011;4151;51.110;7.020;2022-12-18T07:31:22;12.60;;;6.00;;
8219;SDS011;4151;51.110;7.020;2022-12-18T07:33:49;10.80;;;5.40;;
8219;SDS011;4151;51.110;7.020;2022-12-18T07:36:15;10.70;;;6.00;;
8219;SDS011;4151;51.110;7.020;2022-12-18T07:38:41;10.87;;;5.77;;
8219;SDS011;4151;51.110;7.020;2022-12-18T07:41:11;18.07;;;5.33;;
8219;SDS011;4151;51.110;7.020;2022-12-18T07:43:37;10.87;;;5.80;;
8219;SDS011;4151;51.110;7.020;2022-12-18T07:46:04;8.73;;;4.90;;
8219;SDS011;4151;51.110;7.020;2022-12-18T07:48:30;10.17;;;5.70;;
8219;SDS011;4151;51.110;7.020;2022-12-18T07:50:59;10.93;;;5.50;;
8219;SDS011;4151;51.110;7.020;2022-12-18T07:53:30;11.03;;;5.30;;
8219;SDS011;4151;51.110;7.020;2022-12-18T07:56:00;12.43;;;6.40;;
8219;SDS011;4151;51.110;7.020;2022-12-18T07:58:28;12.40;;;5.33;;
8219;SDS011;4151;51.110;7.020;2022-12-18T08:00:53;11.33;;;5.33;;
8219;SDS011;4151;51.110;7.020;2022-12-18T08:03:19;10.70;;;5.40;;
8219;SDS011;4151;51.110;7.020;2022-12-18T08:05:45;7.43;;;4.70;;
8219;SDS011;4151;51.110;7.020;2022-12-18T08:08:10;10.33;;;4.90;;
8219;SDS011;4151;51.110;7.020;2022-12-18T08:10:37;10.80;;;6.40;;
8219;SDS011;4151;51.110;7.020;2022-12-18T08:13:03;10.00;;;5.20;;
8219;SDS011;4151;51.110;7.020;2022-12-18T08:15:28;11.50;;;5.87;;
8219;SDS011;4151;51.110;7.020;2022-12-18T08:17:56;10.60;;;5.47;;
8219;SDS011;4151;51.110;7.020;2022-12-18T08:20:22;13.73;;;5.53;;
8219;SDS011;4151;51.110;7.020;2022-12-18T08:22:47;11.50;;;5.27;;
8219;SDS011;4151;51.110;7.020;2022-12-18T08:25:13;10.50;;;5.80;;
8219;SDS011;4151;51.110;7.020;2022-12-18T08:27:39;9.87;;;5.50;;
8219;SDS011;4151;51.110;7.020;2022-12-18T08:30:04;10.07;;;5.23;;
8219;SDS011;4151;51.110;7.020;2022-12-18T08:32:31;7.83;;;4.90;;
8219;SDS011;4151;51.110;7.020;2022-12-18T08:34:57;10.00;;;5.20;;
8219;SDS011;4151;51.110;7.020;2022-12-18T08:37:23;10.53;;;5.53;;
8219;SDS011;4151;51.110;7.020;2022-12-18T08:39:49;14.57;;;6.07;;
8219;SDS011;4151;51.110;7.020;2022-12-18T08:42:14;8.60;;;5.57;;
8219;SDS011;4151;51.110;7.020;2022-12-18T08:44:58;10.67;;;5.33;;
8219;SDS011;4151;51.110;7.020;2022-12-18T08:47:24;10.47;;;5.63;;
8219;SDS011;4151;51.110;7.020;2022-12-18T08:49:51;9.27;;;4.73;;
8219;SDS011;4151;51.110;7.020;2022-12-18T08:52:16;11.83;;;6.27;;
8219;SDS011;4151;51.110;7.020;2022-12-18T08:54:42;11.47;;;5.53;;
8219;SDS011;4151;51.110;7.020;2022-12-18T08:57:07;14.53;;;5.50;;
8219;SDS011;4151;51.110;7.020;2022-12-18T08:59:33;8.80;;;4.50;;
8219;SDS011;4151;51.110;7.020;2022-12-18T09:01:59;11.13;;;4.90;;
8219;SDS011;4151;51.110;7.020;2022-12-18T09:04:24;7.97;;;4.43;;
8219;SDS011;4151;51.110;7.020;2022-12-18T09:06:50;8.03;;;5.07;;
8219;SDS011;4151;51.110;7.020;2022-12-18T09:09:15;9.63;;;4.43;;
8219;SDS011;4151;51.110;7.020;2022-12-18T09:11:41;11.00;;;5.97;;
8219;SDS011;4151;51.110;7.020;2022-12-18T09:14:06;7.90;;;5.10;;
8219;SDS011;4151;51.110;7.020;2022-12-18T09:16:33;10.10;;;4.70;;
8219;SDS011;4151;51.110;7.020;2022-12-18T09:19:00;9.20;;;5.17;;
8219;SDS011;4151;51.110;7.020;2022-12-18T09:34:18;9.70;;;5.27;;
8219;SDS011;4151;51.110;7.020;2022-12-18T09:36:46;6.70;;;4.00;;
8219;SDS011;4151;51.110;7.020;2022-12-18T09:39:12;9.40;;;5.73;;
8219;SDS011;4151;51.110;7.020;2022-12-18T09:41:44;9.77;;;5.87;;
8219;SDS011;4151;51.110;7.020;2022-12-18T09:44:17;10.93;;;5.20;;
8219;SDS011;4151;51.110;7.020;2022-12-18T09:50:03;9.63;;;4.83;;
8219;SDS011;4151;51.110;7.020;2022-12-18T09:52:37;9.37;;;5.00;;
8219;SDS011;4151;51.110;7.020;2022-12-18T09:57:42;9.50;;;5.20;;
8219;SDS011;4151;51.110;7.020;2022-12-18T10:00:20;25.07;;;10.10;;
8219;SDS011;4151;51.110;7.020;2022-12-18T10:02:48;9.80;;;5.23;;
8219;SDS011;4151;51.110;7.020;2022-12-18T10:05:17;6.87;;;4.67;;
8219;SDS011;4151;51.110;7.020;2022-12-18T10:08:05;10.00;;;5.30;;
8219;SDS011;4151;51.110;7.020;2022-12-18T10:10:50;8.33;;;4.70;;
8219;SDS011;4151;51.110;7.020;2022-12-18T10:13:42;10.20;;;4.63;;
8219;SDS011;4151;51.110;7.020;2022-12-18T10:16:19;9.57;;;5.13;;
8219;SDS011;4151;51.110;7.020;2022-12-18T10:21:45;9.20;;;5.27;;
8219;SDS011;4151;51.110;7.020;2022-12-18T10:26:52;9.77;;;5.37;;
8219;SDS011;4151;51.110;7.020;2022-12-18T10:29:21;12.00;;;5.40;;
8219;SDS011;4151;51.110;7.020;2022-12-18T10:31:47;10.33;;;4.60;;
8219;SDS011;4151;51.110;7.020;2022-12-18T10:34:12;10.90;;;5.40;;
8219;SDS011;4151;51.110;7.020;2022-12-18T10:36:41;9.20;;;4.93;;
8219;SDS011;4151;51.110;7.020;2022-12-18T10:39:17;8.40;;;5.13;;
8219;SDS011;4151;51.110;7.020;2022-12-18T10:41:45;13.73;;;6.00;;
8219;SDS011;4151;51.110;7.020;2022-12-18T10:44:21;10.10;;;5.00;;
8219;SDS011;4151;51.110;7.020;2022-12-18T10:46:54;11.90;;;6.20;;
8219;SDS011;4151;51.110;7.020;2022-12-18T10:49:27;12.53;;;6.80;;
8219;SDS011;4151;51.110;7.020;2022-12-18T10:59:55;9.40;;;5.10;;
8219;SDS011;4151;51.110;7.020;2022-12-18T11:02:35;9.07;;;5.57;;
8219;SDS011;4151;51.110;7.020;2022-12-18T11:05:02;8.83;;;5.00;;
8219;SDS011;4151;51.110;7.020;2022-12-18T11:07:48;11.87;;;5.60;;
8219;SDS011;4151;51.110;7.020;2022-12-18T11:10:20;9.90;;;4.80;;
8219;SDS011;4151;51.110;7.020;2022-12-18T11:12:46;11.73;;;5.80;;
8219;SDS011;4151;51.110;7.020;2022-12-18T11:15:19;11.20;;;6.03;;
8219;SDS011;4151;51.110;7.020;2022-12-18T11:17:48;12.63;;;6.00;;
8219;SDS011;4151;51.110;7.020;2022-12-18T11:20:32;9.03;;;5.87;;
8219;SDS011;4151;51.110;7.020;2022-12-18T11:23:00;10.90;;;5.80;;
8219;SDS011;4151;51.110;7.020;2022-12-18T11:25:28;10.87;;;5.73;;
8219;SDS011;4151;51.110;7.020;2022-12-18T11:27:56;11.20;;;6.07;;
8219;SDS011;4151;51.110;7.020;2022-12-18T11:30:25;9.70;;;5.50;;
8219;SDS011;4151;51.110;7.020;2022-12-18T11:32:55;11.73;;;6.70;;
8219;SDS011;4151;51.110;7.020;2022-12-18T11:35:38;14.93;;;6.80;;
8219;SDS011;4151;51.110;7.020;2022-12-18T11:38:31;12.00;;;5.97;;
8219;SDS011;4151;51.110;7.020;2022-12-18T11:43:48;12.07;;;6.77;;
8219;SDS011;4151;51.110;7.020;2022-12-18T11:46:19;11.37;;;5.43;;
8219;SDS011;4151;51.110;7.020;2022-12-18T11:48:56;10.73;;;6.20;;
8219;SDS011;4151;51.110;7.020;2022-12-18T11:51:31;12.67;;;6.20;;
8219;SDS011;4151;51.110;7.020;2022-12-18T12:08:18;10.07;;;6.13;;
8219;SDS011;4151;51.110;7.020;2022-12-18T12:11:23;20.13;;;8.70;;
8219;SDS011;4151;51.110;7.020;2022-12-18T12:14:08;13.10;;;6.93;;
8219;SDS011;4151;51.110;7.020;2022-12-18T12:19:47;15.43;;;6.80;;
8219;SDS011;4151;51.110;7.020;2022-12-18T12:39:08;17.37;;;8.87;;
8219;SDS011;4151;51.110;7.020;2022-12-18T12:41:38;17.00;;;8.13;;
8219;SDS011;4151;51.110;7.020;2022-12-18T12:44:35;17.10;;;8.77;;
8219;SDS011;4151;51.110;7.020;2022-12-18T12:47:16;14.40;;;8.07;;
8219;SDS011;4151;51.110;7.020;2022-12-18T12:49:50;18.33;;;9.37;;
8219;SDS011;4151;51.110;7.020;2022-12-18T12:52:19;14.00;;;8.00;;
8219;SDS011;4151;51.110;7.020;2022-12-18T12:54:57;16.10;;;7.47;;
8219;SDS011;4151;51.110;7.020;2022-12-18T12:57:27;22.10;;;8.10;;
8219;SDS011;4151;51.110;7.020;2022-12-18T13:02:35;20.23;;;8.77;;
8219;SDS011;4151;51.110;7.020;2022-12-18T13:05:38;16.53;;;7.80;;
8219;SDS011;4151;51.110;7.020;2022-12-18T13:08:34;20.10;;;7.87;;
8219;SDS011;4151;51.110;7.020;2022-12-18T13:10:59;17.13;;;8.80;;
8219;SDS011;4151;51.110;7.020;2022-12-18T13:13:51;15.90;;;8.33;;
8219;SDS011;4151;51.110;7.020;2022-12-18T13:16:19;17.70;;;9.43;;
8219;SDS011;4151;51.110;7.020;2022-12-18T13:18:50;15.20;;;8.10;;
8219;SDS011;4151;51.110;7.020;2022-12-18T13:21:21;13.30;;;7.40;;
8219;SDS011;4151;51.110;7.020;2022-12-18T13:23:51;17.97;;;8.30;;
8219;SDS011;4151;51.110;7.020;2022-12-18T13:36:41;18.63;;;9.10;;
8219;SDS011;4151;51.110;7.020;2022-12-18T13:41:48;17.53;;;8.60;;
8219;SDS011;4151;51.110;7.020;2022-12-18T13:44:38;20.33;;;9.60;;
8219;SDS011;4151;51.110;7.020;2022-12-18T13:47:05;17.50;;;9.57;;
8219;SDS011;4151;51.110;7.020;2022-12-18T13:49:53;15.13;;;8.50;;
8219;SDS011;4151;51.110;7.020;2022-12-18T13:52:24;23.23;;;9.90;;
8219;SDS011;4151;51.110;7.020;2022-12-18T13:54:52;19.00;;;8.63;;
8219;SDS011;4151;51.110;7.020;2022-12-18T13:59:57;20.30;;;9.07;;
8219;SDS011;4151;51.110;7.020;2022-12-18T14:02:37;27.03;;;10.23;;
8219;SDS011;4151;51.110;7.020;2022-12-18T14:05:03;18.93;;;9.63;;
8219;SDS011;4151;51.110;7.020;2022-12-18T14:07:29;19.70;;;8.57;;
8219;SDS011;4151;51.110;7.020;2022-12-18T14:09:57;23.23;;;10.37;;
8219;SDS011;4151;51.110;7.020;2022-12-18T14:12:29;20.33;;;9.27;;
8219;SDS011;4151;51.110;7.020;2022-12-18T14:17:50;22.60;;;10.30;;
8219;SDS011;4151;51.110;7.020;2022-12-18T14:20:17;18.40;;;9.60;;
8219;SDS011;4151;51.110;7.020;2022-12-18T14:22:44;23.27;;;10.10;;
8219;SDS011;4151;51.110;7.020;2022-12-18T14:25:15;24.87;;;10.40;;
8219;SDS011;4151;51.110;7.020;2022-12-18T14:27:50;26.50;;;11.10;;
8219;SDS011;4151;51.110;7.020;2022-12-18T14:30:44;17.87;;;10.23;;
8219;SDS011;4151;51.110;7.020;2022-12-18T14:33:12;17.00;;;10.17;;
8219;SDS011;4151;51.110;7.020;2022-12-18T14:38:21;24.20;;;10.50;;
8219;SDS011;4151;51.110;7.020;2022-12-18T14:43:37;24.03;;;10.80;;
8219;SDS011;4151;51.110;7.020;2022-12-18T14:46:04;20.97;;;10.17;;
8219;SDS011;4151;51.110;7.020;2022-12-18T14:48:44;22.17;;;10.50;;
8219;SDS011;4151;51.110;7.020;2022-12-18T14:51:17;22.10;;;10.87;;
8219;SDS011;4151;51.110;7.020;2022-12-18T14:53:46;22.73;;;10.60;;
8219;SDS011;4151;51.110;7.020;2022-12-18T14:58:39;22.17;;;11.50;;
8219;SDS011;4151;51.110;7.020;2022-12-18T15:01:17;20.17;;;10.53;;
8219;SDS011;4151;51.110;7.020;2022-12-18T15:03:44;25.30;;;11.80;;
8219;SDS011;4151;51.110;7.020;2022-12-18T15:06:26;28.90;;;12.53;;
8219;SDS011;4151;51.110;7.020;2022-12-18T15:08:52;24.30;;;10.10;;
8219;SDS011;4151;51.110;7.020;2022-12-18T15:16:58;25.40;;;10.90;;
8219;SDS011;4151;51.110;7.020;2022-12-18T15:19:31;21.53;;;10.50;;
8219;SDS011;4151;51.110;7.020;2022-12-18T15:22:00;23.57;;;11.50;;
8219;SDS011;4151;51.110;7.020;2022-12-18T15:24:27;23.23;;;10.23;;
8219;SDS011;4151;51.110;7.020;2022-12-18T15:26:57;24.03;;;11.10;;
8219;SDS011;4151;51.110;7.020;2022-12-18T15:29:23;23.77;;;11.70;;
8219;SDS011;4151;51.110;7.020;2022-12-18T15:32:00;18.03;;;10.40;;
8219;SDS011;4151;51.110;7.020;2022-12-18T15:34:27;22.33;;;10.40;;
8219;SDS011;4151;51.110;7.020;2022-12-18T15:36:53;26.80;;;11.20;;
8219;SDS011;4151;51.110;7.020;2022-12-18T15:39:19;26.90;;;11.10;;
8219;SDS011;4151;51.110;7.020;2022-12-18T15:41:45;19.20;;;11.03;;
8219;SDS011;4151;51.110;7.020;2022-12-18T15:44:29;25.73;;;11.30;;
8219;SDS011;4151;51.110;7.020;2022-12-18T15:46:55;22.50;;;11.70;;
8219;SDS011;4151;51.110;7.020;2022-12-18T15:49:20;21.10;;;10.90;;
8219;SDS011;4151;51.110;7.020;2022-12-18T15:51:47;28.90;;;12.27;;
8219;SDS011;4151;51.110;7.020;2022-12-18T15:54:16;25.13;;;12.33;;
8219;SDS011;4151;51.110;7.020;2022-12-18T15:56:42;20.27;;;9.97;;
8219;SDS011;4151;51.110;7.020;2022-12-18T15:59:26;22.50;;;11.03;;
8219;SDS011;4151;51.110;7.020;2022-12-18T16:01:52;28.40;;;11.97;;
8219;SDS011;4151;51.110;7.020;2022-12-18T16:04:18;26.00;;;13.43;;
8219;SDS011;4151;51.110;7.020;2022-12-18T16:06:45;25.17;;;11.47;;
8219;SDS011;4151;51.110;7.020;2022-12-18T16:09:11;25.00;;;12.77;;
8219;SDS011;4151;51.110;7.020;2022-12-18T16:11:37;26.97;;;12.87;;
8219;SDS011;4151;51.110;7.020;2022-12-18T16:14:20;31.23;;;12.50;;
8219;SDS011;4151;51.110;7.020;2022-12-18T16:16:49;27.40;;;13.70;;
8219;SDS011;4151;51.110;7.020;2022-12-18T16:19:17;25.97;;;13.00;;
8219;SDS011;4151;51.110;7.020;2022-12-18T16:21:43;30.00;;;13.60;;
8219;SDS011;4151;51.110;7.020;2022-12-18T16:26:47;30.00;;;14.33;;
8219;SDS011;4151;51.110;7.020;2022-12-18T16:29:13;27.30;;;12.13;;
8219;SDS011;4151;51.110;7.020;2022-12-18T16:31:39;34.73;;;15.07;;
8219;SDS011;4151;51.110;7.020;2022-12-18T16:34:12;30.10;;;14.37;;
8219;SDS011;4151;51.110;7.020;2022-12-18T16:36:51;26.83;;;12.57;;
8219;SDS011;4151;51.110;7.020;2022-12-18T16:39:20;26.70;;;14.37;;
8219;SDS011;4151;51.110;7.020;2022-12-18T16:41:46;33.47;;;14.97;;
8219;SDS011;4151;51.110;7.020;2022-12-18T16:44:12;33.70;;;16.80;;
8219;SDS011;4151;51.110;7.020;2022-12-18T16:46:38;32.60;;;14.87;;
8219;SDS011;4151;51.110;7.020;2022-12-18T16:49:07;31.47;;;13.60;;
8219;SDS011;4151;51.110;7.020;2022-12-18T16:51:33;29.83;;;13.43;;
8219;SDS011;4151;51.110;7.020;2022-12-18T16:53:59;24.90;;;12.40;;
8219;SDS011;4151;51.110;7.020;2022-12-18T16:56:25;30.77;;;15.40;;
8219;SDS011;4151;51.110;7.020;2022-12-18T16:58:54;30.73;;;13.63;;
8219;SDS011;4151;51.110;7.020;2022-12-18T17:01:21;28.93;;;12.73;;
8219;SDS011;4151;51.110;7.020;2022-12-18T17:03:54;31.17;;;14.50;;
8219;SDS011;4151;51.110;7.020;2022-12-18T17:06:21;31.00;;;15.43;;
8219;SDS011;4151;51.110;7.020;2022-12-18T17:08:52;31.93;;;15.20;;
8219;SDS011;4151;51.110;7.020;2022-12-18T17:11:19;32.70;;;13.47;;
8219;SDS011;4151;51.110;7.020;2022-12-18T17:13:45;30.87;;;15.50;;
8219;SDS011;4151;51.110;7.020;2022-12-18T17:16:11;31.20;;;16.07;;
8219;SDS011;4151;51.110;7.020;2022-12-18T17:18:36;32.00;;;14.23;;
8219;SDS011;4151;51.110;7.020;2022-12-18T17:21:02;31.70;;;14.67;;
8219;SDS011;4151;51.110;7.020;2022-12-18T17:23:31;38.93;;;14.10;;
8219;SDS011;4151;51.110;7.020;2022-12-18T17:25:56;41.40;;;16.00;;
8219;SDS011;4151;51.110;7.020;2022-12-18T17:28:26;31.97;;;14.50;;
8219;SDS011;4151;51.110;7.020;2022-12-18T17:30:53;32.23;;;14.20;;
8219;SDS011;4151;51.110;7.020;2022-12-18T17:33:19;33.30;;;14.10;;
8219;SDS011;4151;51.110;7.020;2022-12-18T17:35:45;36.20;;;14.93;;
8219;SDS011;4151;51.110;7.020;2022-12-18T17:38:11;32.47;;;15.23;;